Edenburg, PA

4:49 PM EDT on August 21, 2019 (GMT -0400)
Edenburg Park Raymond Ave | | Change Station
Active Advisory: Severe Thunderstorm Watch

Elev 548 ft 40.57 °N, 75.96 °W | Updated 7 seconds ago

Partly Cloudy
Partly Cloudy
88.9 °F
Feels Like 100 °F
N
2.24
Wind Variable Wind from SE
Gusts 2.5 mph

Today
High -- | Low -- °F
--% Chance of Precip.
Yesterday
High -- | Low -- °F
Precip. -- in
Pressure 29.88 in
Visibility 10.0 miles
Clouds Scattered Clouds 3800 ft
Mostly Cloudy 4900 ft
Mostly Cloudy 6000 ft
Heat Index 100 °F
Dew Point 76 °F
Humidity 65%
Rainfall 0.04 in
Snow Depth Not available.
6:20 AM 7:53 PM
Waning Gibbous, 67% visible
METAR KRDG 211954Z 16010KT 10SM SCT038 BKN049 BKN060 29/22 A2987 RMK AO2 LTG DSNT SE SLP117 T02890217
Pressure 29.88 in
Visibility 10.0 miles
Clouds Scattered Clouds 3800 ft
Mostly Cloudy 4900 ft
Mostly Cloudy 6000 ft
Heat Index 100 °F
Dew Point 76 °F
Humidity 65%
Rainfall 0.04 in
Snow Depth Not available.
6:20 AM 7:53 PM
Waning Gibbous, 67% visible
METAR KRDG 211954Z 16010KT 10SM SCT038 BKN049 BKN060 29/22 A2987 RMK AO2 LTG DSNT SE SLP117 T02890217

Get Your Daily Forecast Email!

Thanks for signing up!

Be on the lookout for a verification email in your inbox.

You'll start receiving severe weather alerts in your inbox..

×

10-Day Weather Forecast

Almanac

Astronomy

Aug. 21, 2019 Rise Set
Actual Time
Civil Twilight
Nautical Twilight
Astronomical Twilight
Moon
Length of Visible Light
Length of Day
Tomorrow will be .
, % of the Moon is Illuminated

Today's Extremes

State Highs State Lows

Community

WunderPhotos

Category 6

Welcome to Category 6. This is the collective home for Weather Underground's featured writeups by Dr. Jeff Masters (right), Bob Henson (left), Chris Burt, and other regular contributors.

Nearby

Air Quality

  Air Quality AQ Index Pollutant
Not available.

Snow Depth

Station Depth Elevation

Earthquake Activity

City Distance Mag. Time & Date
Minimum magnitude displayed is 2.5.

Coastal Water Temperatures

Place Temperature

Stations

Nearby Weather Stations

Station Location Temp. Windchill Dew Point Humidity Wind Precip. Elev Updated Type
                   

Watches & Warnings

Severe Thunderstorm Watch
Issued: 4:23 PM EDT Aug. 21, 2019 – National Weather Service

Severe Thunderstorm Watch 610 remains in effect until 1000 PM EDT

PA
. Pennsylvania counties included are

Adams Berks Bucks
Carbon Chester Dauphin
Delaware Lancaster Lebanon
Lehigh Monroe Montgomery
Northampton Philadelphia Schuylkill
York